Time;durP1;ratioP1;P1;durP2;ratioP2;P2;SDS_P1;SDS_P2;PMS_P1;PMS_P2;Temp;Humidity;BMP_temperature;BMP_pressure;BME280_temperature;BME280_humidity;BME280_pressure;Samples;Min_cycle;Max_cycle;Signal;HPM_P1;HPM_P2
2022/03/06 00:00:17;;;;;;;;;82.75;67.25;;;;;11.82;56.36;101618.00;4932939;28;45281;-65
2022/03/06 00:02:43;;;;;;;;;82.50;68.00;;;;;11.81;56.43;101618.91;4941390;28;45446;-65
2022/03/06 00:05:09;;;;;;;;;79.00;65.25;;;;;11.77;56.33;101615.41;4940643;28;46929;-65
2022/03/06 00:07:34;;;;;;;;;83.50;70.25;;;;;11.73;55.99;101608.41;4936302;28;45460;-66
2022/03/06 00:09:59;;;;;;;;;82.00;66.50;;;;;11.68;55.88;101611.16;4933347;28;45412;-65
2022/03/06 00:12:25;;;;;;;;;82.00;63.25;;;;;11.68;56.05;101611.16;4926887;28;45441;-66
2022/03/06 00:14:50;;;;;;;;;80.25;65.75;;;;;11.68;56.14;101615.66;4932123;28;46580;-65
2022/03/06 00:17:15;;;;;;;;;77.50;61.75;;;;;11.66;55.98;101614.78;4930745;28;45441;-65
2022/03/06 00:19:41;;;;;;;;;83.75;72.25;;;;;11.63;56.16;101615.75;4928900;28;45239;-66
2022/03/06 00:22:06;;;;;;;;;78.00;61.00;;;;;11.56;55.80;101615.91;4933379;28;45328;-65
2022/03/06 00:24:32;;;;;;;;;83.25;68.75;;;;;11.52;55.49;101624.94;4926036;28;46158;-65
2022/03/06 00:26:57;;;;;;;;;83.75;67.50;;;;;11.39;56.07;101622.50;4936390;28;45192;-65
2022/03/06 00:29:23;;;;;;;;;81.50;66.75;;;;;11.34;56.05;101621.72;4940282;28;45620;-65
2022/03/06 00:31:48;;;;;;;;;81.50;64.25;;;;;11.34;56.01;101632.41;4940010;28;45436;-66
2022/03/06 00:34:14;;;;;;;;;79.50;62.00;;;;;11.26;55.90;101624.59;4938115;28;45203;-66
2022/03/06 00:36:39;;;;;;;;;82.25;64.50;;;;;11.20;56.13;101618.50;4940728;28;45312;-65
2022/03/06 00:39:04;;;;;;;;;78.25;61.25;;;;;11.29;55.66;101637.88;4934090;28;45887;-65
2022/03/06 00:41:30;;;;;;;;;73.75;58.00;;;;;11.31;55.74;101635.19;4921810;28;45309;-66
2022/03/06 00:43:55;;;;;;;;;76.75;60.25;;;;;11.31;55.83;101624.50;4934535;28;46458;-65
2022/03/06 00:46:20;;;;;;;;;80.50;60.25;;;;;11.28;55.12;101625.41;4933798;28;45329;-66
2022/03/06 00:48:46;;;;;;;;;72.75;57.50;;;;;11.22;55.21;101622.00;4926142;28;45493;-65
2022/03/06 00:51:13;;;;;;;;;80.50;61.25;;;;;11.27;55.50;101625.44;4925374;28;45397;-65
2022/03/06 00:53:38;;;;;;;;;76.25;58.25;;;;;11.23;55.20;101615.75;4921940;28;45373;-66
2022/03/06 00:56:03;;;;;;;;;79.25;59.25;;;;;11.23;55.10;101619.28;4933985;28;45469;-65
2022/03/06 00:58:29;;;;;;;;;79.75;59.50;;;;;11.24;54.87;101620.16;4928921;28;45471;-66
2022/03/06 01:00:54;;;;;;;;;74.50;58.25;;;;;11.18;54.78;101628.34;4943987;28;45358;-65
2022/03/06 01:03:21;;;;;;;;;76.25;58.50;;;;;11.12;54.61;101630.19;4932772;28;45449;-65
2022/03/06 01:05:46;;;;;;;;;77.75;59.00;;;;;11.09;54.23;101624.94;4936226;28;45311;-65
2022/03/06 01:08:13;;;;;;;;;72.25;58.50;;;;;11.08;54.54;101628.50;4934022;28;45298;-65
2022/03/06 01:10:41;;;;;;;;;75.25;59.75;;;;;11.04;53.66;101631.25;4926831;28;45655;-66
2022/03/06 01:13:08;;;;;;;;;73.75;58.50;;;;;10.93;53.70;101634.16;4933908;28;45474;-65
2022/03/06 01:15:34;;;;;;;;;76.00;59.00;;;;;10.91;54.02;101627.97;4930710;28;45698;-65
2022/03/06 01:18:00;;;;;;;;;76.00;59.00;;;;;10.93;53.82;101642.19;4932041;28;45487;-65
2022/03/06 01:20:26;;;;;;;;;74.50;57.00;;;;;10.90;54.12;101639.56;4937259;28;45294;-65
2022/03/06 01:22:53;;;;;;;;;77.00;60.50;;;;;10.90;54.10;101636.88;4949196;28;45929;-65
2022/03/06 01:25:18;;;;;;;;;71.25;56.75;;;;;10.82;53.89;101630.81;4931934;28;45355;-65
2022/03/06 01:27:44;;;;;;;;;77.00;59.00;;;;;10.81;53.49;101629.94;4943259;28;45353;-65
2022/03/06 01:30:11;;;;;;;;;71.25;55.75;;;;;10.85;53.76;101636.09;4937162;28;46930;-65
2022/03/06 01:32:37;;;;;;;;;79.50;62.00;;;;;10.85;53.80;101633.44;4924552;28;46187;-66
2022/03/06 01:35:04;;;;;;;;;79.00;63.50;;;;;10.88;53.76;101638.72;4933605;28;45367;-65
2022/03/06 01:37:29;;;;;;;;;74.75;59.25;;;;;10.79;53.09;101639.75;4951136;28;45385;-65
2022/03/06 01:39:55;;;;;;;;;72.75;58.75;;;;;10.75;53.35;101624.72;4932287;28;45285;-65
2022/03/06 01:42:20;;;;;;;;;78.50;62.00;;;;;10.75;53.51;101627.38;4935241;28;45426;-66
2022/03/06 01:44:50;;;;;;;;;76.50;59.00;;;;;10.73;52.83;101627.41;4940749;28;45313;-65
2022/03/06 01:47:50;;;;;;;;;81.75;60.25;;;;;10.62;53.38;101631.19;4934261;28;45550;-65
2022/03/06 01:50:19;;;;;;;;;74.75;59.50;;;;;10.61;53.24;101630.31;4931288;28;45239;-66
2022/03/06 01:52:46;;;;;;;;;76.25;59.50;;;;;10.60;53.15;101643.69;4928360;28;45320;-65
2022/03/06 01:55:13;;;;;;;;;76.50;59.75;;;;;10.57;53.20;101634.84;4940413;28;46000;-65
2022/03/06 01:57:40;;;;;;;;;73.75;58.25;;;;;10.47;52.88;101627.00;4930801;28;45432;-65
2022/03/06 02:00:10;;;;;;;;;73.50;57.00;;;;;10.52;53.32;101636.72;4929815;28;45221;-66
2022/03/06 02:02:35;;;;;;;;;71.00;56.00;;;;;10.50;52.81;101638.50;4936928;28;46384;-65
2022/03/06 02:05:00;;;;;;;;;72.00;56.50;;;;;10.45;53.01;101629.69;4932022;28;45431;-65
2022/03/06 02:07:26;;;;;;;;;71.75;57.50;;;;;10.49;52.91;101638.53;4933388;28;45535;-65
2022/03/06 02:09:52;;;;;;;;;68.75;54.00;;;;;10.44;52.60;101648.41;4929818;28;45361;-66
2022/03/06 02:12:23;;;;;;;;;73.75;56.25;;;;;10.37;52.65;101642.28;4923646;28;45398;-65
2022/03/06 02:14:57;;;;;;;;;74.50;59.75;;;;;10.20;53.01;101629.22;4937249;28;45282;-65
2022/03/06 02:17:25;;;;;;;;;73.00;56.25;;;;;10.15;52.57;101639.06;4939904;28;45349;-65
2022/03/06 02:19:51;;;;;;;;;69.00;55.75;;;;;10.14;52.42;101640.88;4939542;28;45470;-65
2022/03/06 02:22:16;;;;;;;;;77.75;56.75;;;;;10.14;52.51;101635.53;4932820;28;46147;-65
2022/03/06 02:24:41;;;;;;;;;74.25;58.50;;;;;10.15;52.25;101642.63;4929701;28;45386;-66
2022/03/06 02:27:07;;;;;;;;;73.25;57.75;;;;;10.04;52.68;101627.69;4942461;28;45318;-65
2022/03/06 02:29:32;;;;;;;;;64.75;52.50;;;;;9.99;52.14;101634.00;4939292;28;45507;-65
2022/03/06 02:32:00;;;;;;;;;73.25;58.00;;;;;9.99;52.24;101636.66;4933175;28;45865;-66
2022/03/06 02:34:27;;;;;;;;;74.00;55.75;;;;;10.00;52.03;101637.53;4936556;28;45982;-65
2022/03/06 02:36:53;;;;;;;;;76.25;58.75;;;;;9.91;52.13;101637.69;4924162;28;45499;-65
2022/03/06 02:39:24;;;;;;;;;76.00;59.00;;;;;9.88;52.26;101638.59;4934846;28;45447;-65
2022/03/06 02:41:49;;;;;;;;;65.75;51.25;;;;;9.81;52.22;101631.59;4934910;28;45361;-65
2022/03/06 02:44:15;;;;;;;;;72.00;57.00;;;;;9.71;52.07;101635.31;4938196;28;45544;-65
2022/03/06 02:46:40;;;;;;;;;73.00;57.00;;;;;9.60;52.17;101628.34;4924168;28;45390;-65
2022/03/06 02:49:05;;;;;;;;;73.00;57.00;;;;;9.59;52.23;101631.06;4941711;28;45227;-66
2022/03/06 02:51:31;;;;;;;;;72.25;56.75;;;;;9.61;52.33;101626.56;4936623;28;45188;-65
2022/03/06 02:53:56;;;;;;;;;75.50;59.25;;;;;9.63;52.55;101622.09;4923521;28;45240;-66
2022/03/06 02:56:21;;;;;;;;;73.25;58.75;;;;;9.61;52.51;101623.91;4923338;28;45457;-66
2022/03/06 02:58:47;;;;;;;;;77.50;59.25;;;;;9.58;52.38;101635.47;4933883;28;45402;-65
2022/03/06 03:01:12;;;;;;;;;71.75;57.00;;;;;9.51;52.30;101641.81;4933741;28;45261;-65
2022/03/06 03:03:39;;;;;;;;;68.00;54.00;;;;;9.47;52.81;101637.41;4938262;28;45444;-65
2022/03/06 03:06:07;;;;;;;;;75.25;58.50;;;;;9.45;52.58;101639.22;4926925;28;45335;-65
2022/03/06 03:08:32;;;;;;;;;73.50;58.00;;;;;9.42;52.34;101649.91;4938013;28;45242;-65
2022/03/06 03:10:58;;;;;;;;;74.25;59.50;;;;;9.39;52.25;101639.31;4952793;28;45373;-66
2022/03/06 03:13:23;;;;;;;;;75.25;60.25;;;;;9.36;52.99;101642.00;4930370;28;45368;-65
2022/03/06 03:15:48;;;;;;;;;71.00;58.00;;;;;9.34;52.76;101639.38;4934036;28;45306;-65
2022/03/06 03:18:13;;;;;;;;;71.75;57.50;;;;;9.36;52.75;101634.88;4931397;28;45397;-65
2022/03/06 03:20:39;;;;;;;;;71.75;58.50;;;;;9.35;52.57;101635.78;4945461;28;46015;-65
2022/03/06 03:23:04;;;;;;;;;72.75;56.00;;;;;9.29;52.42;101638.56;4931444;28;45334;-66
2022/03/06 03:25:30;;;;;;;;;69.50;53.25;;;;;9.23;52.77;101636.81;4927856;28;45802;-66
2022/03/06 03:27:55;;;;;;;;;71.25;56.25;;;;;9.28;52.79;101642.97;4934781;28;45405;-65
2022/03/06 03:30:20;;;;;;;;;75.50;58.00;;;;;9.27;52.56;101648.31;4929525;28;46034;-66
2022/03/06 03:32:46;;;;;;;;;76.75;60.00;;;;;9.19;52.20;101652.88;4935452;28;45220;-65
2022/03/06 03:35:11;;;;;;;;;73.75;56.25;;;;;9.05;52.39;101651.28;4934624;28;45501;-66
2022/03/06 03:37:37;;;;;;;;;74.25;58.50;;;;;9.01;52.51;101643.31;4927552;28;45439;-66
2022/03/06 03:40:05;;;;;;;;;72.75;58.00;;;;;8.99;52.55;101648.66;4935354;28;45321;-66
2022/03/06 03:42:30;;;;;;;;;65.75;53.50;;;;;8.92;52.63;101659.38;4922139;28;45362;-65
2022/03/06 03:44:56;;;;;;;;;75.75;59.00;;;;;8.93;52.47;101658.50;4921642;28;45273;-65
2022/03/06 03:47:21;;;;;;;;;72.50;54.75;;;;;8.97;52.27;101668.22;4931672;28;45411;-65
2022/03/06 03:49:47;;;;;;;;;74.50;60.75;;;;;8.97;52.58;101657.56;4938411;28;45720;-65
2022/03/06 03:52:12;;;;;;;;;71.00;56.75;;;;;9.04;52.64;101664.59;4934649;28;45372;-66
2022/03/06 03:54:38;;;;;;;;;71.75;57.75;;;;;9.02;52.64;101661.03;4941281;28;45601;-67
2022/03/06 03:57:04;;;;;;;;;62.25;50.50;;;;;9.06;52.54;101669.00;4934987;28;45427;-65
2022/03/06 03:59:29;;;;;;;;;74.50;56.50;;;;;9.01;52.51;101664.63;4928660;28;45330;-65
2022/03/06 04:01:55;;;;;;;;;70.50;55.75;;;;;9.01;52.77;101665.50;4929988;28;45241;-65
2022/03/06 04:04:20;;;;;;;;;74.00;56.25;;;;;8.98;52.78;101675.31;4936227;28;45526;-65
2022/03/06 04:06:46;;;;;;;;;75.25;57.25;;;;;8.96;52.64;101674.44;4937972;28;45499;-65
2022/03/06 04:09:11;;;;;;;;;74.25;57.25;;;;;8.91;52.42;101669.16;4930522;28;45420;-66
2022/03/06 04:11:36;;;;;;;;;79.50;60.00;;;;;8.85;52.50;101670.13;4951078;28;45216;-65
2022/03/06 04:14:02;;;;;;;;;74.00;59.25;;;;;8.77;52.87;101681.72;4941748;28;45319;-66
2022/03/06 04:16:27;;;;;;;;;73.00;58.00;;;;;8.65;52.62;101682.72;4942769;28;45442;-65
2022/03/06 04:18:52;;;;;;;;;72.75;58.00;;;;;8.64;53.14;101688.97;4925368;28;45310;-65
2022/03/06 04:21:18;;;;;;;;;75.50;58.50;;;;;8.62;53.10;101685.41;4939985;28;45238;-66
2022/03/06 04:23:44;;;;;;;;;74.75;59.75;;;;;8.56;53.16;101686.38;4929802;28;45283;-65
2022/03/06 04:26:09;;;;;;;;;77.75;59.75;;;;;8.55;52.81;101686.38;4937207;28;45499;-65
2022/03/06 04:28:35;;;;;;;;;74.00;59.25;;;;;8.47;53.15;101694.41;4930990;28;46115;-65
2022/03/06 04:31:00;;;;;;;;;69.00;55.75;;;;;8.41;53.26;101681.16;4925097;28;45166;-65
2022/03/06 04:33:25;;;;;;;;;73.25;57.00;;;;;8.40;53.20;101692.66;4932114;28;45357;-65
2022/03/06 04:35:51;;;;;;;;;70.75;56.75;;;;;8.34;53.58;101694.50;4937520;28;45376;-65
2022/03/06 04:38:16;;;;;;;;;71.00;57.75;;;;;8.35;53.65;101692.69;4938449;28;46137;-65
2022/03/06 04:40:42;;;;;;;;;73.25;56.00;;;;;8.33;53.58;101702.47;4927891;28;45397;-65
2022/03/06 04:43:07;;;;;;;;;72.50;55.00;;;;;8.27;53.39;101697.19;4921906;28;45296;-65
2022/03/06 04:45:33;;;;;;;;;74.00;58.75;;;;;8.25;53.65;101702.56;4931884;28;45534;-65
2022/03/06 04:47:58;;;;;;;;;74.00;58.00;;;;;8.22;53.54;101697.25;4935790;28;46069;-65
2022/03/06 04:50:23;;;;;;;;;75.25;58.75;;;;;8.23;53.50;101701.66;4938373;28;45339;-65
2022/03/06 04:52:49;;;;;;;;;69.50;55.25;;;;;8.21;53.52;101707.91;4924207;28;46050;-66
2022/03/06 04:55:14;;;;;;;;;72.75;58.25;;;;;8.18;53.65;101706.13;4930596;28;45263;-65
2022/03/06 04:57:41;;;;;;;;;76.75;59.25;;;;;8.15;53.89;101703.50;4941438;28;45551;-65
2022/03/06 05:00:07;;;;;;;;;78.50;61.25;;;;;8.18;53.94;101703.47;4933146;28;45290;-65
2022/03/06 05:02:32;;;;;;;;;69.50;53.50;;;;;8.14;53.72;101705.28;4931424;28;45373;-65
2022/03/06 05:04:58;;;;;;;;;76.75;58.75;;;;;8.10;53.72;101697.31;4946301;28;45180;-65
2022/03/06 05:07:23;;;;;;;;;72.25;58.25;;;;;8.12;54.02;101703.53;4950996;28;46098;-65
2022/03/06 05:09:49;;;;;;;;;74.25;59.75;;;;;8.12;53.96;101704.41;4926459;28;45361;-65
2022/03/06 05:12:14;;;;;;;;;73.00;55.50;;;;;8.08;54.13;101700.00;4924901;28;45356;-65
2022/03/06 05:14:39;;;;;;;;;77.00;60.50;;;;;8.12;54.10;101701.75;4942853;28;45302;-65
2022/03/06 05:17:05;;;;;;;;;75.25;58.00;;;;;8.02;54.25;101696.50;4952582;28;45262;-65
2022/03/06 05:19:30;;;;;;;;;73.75;57.25;;;;;8.09;54.20;101720.38;4927068;28;45343;-65
2022/03/06 05:21:55;;;;;;;;;77.50;60.50;;;;;8.07;54.05;101706.22;4946824;28;45351;-66
2022/03/06 05:24:21;;;;;;;;;75.50;58.50;;;;;8.14;54.25;101715.91;4942826;28;45537;-65
2022/03/06 05:26:46;;;;;;;;;76.75;59.50;;;;;8.17;54.13;101712.38;4940561;28;45553;-65
2022/03/06 05:29:12;;;;;;;;;76.25;59.50;;;;;8.21;54.13;101722.06;4933454;28;45392;-65
2022/03/06 05:31:37;;;;;;;;;77.50;61.00;;;;;8.22;54.22;101720.28;4928425;28;45330;-65
2022/03/06 05:34:02;;;;;;;;;76.25;58.00;;;;;8.12;53.58;101725.69;4932958;28;45298;-65
2022/03/06 05:36:28;;;;;;;;;73.00;56.25;;;;;8.02;53.97;101723.97;4936834;28;46106;-65
2022/03/06 05:38:53;;;;;;;;;76.75;59.25;;;;;7.92;53.89;101728.47;4925077;28;46565;-65
2022/03/06 05:41:19;;;;;;;;;73.50;58.75;;;;;7.89;54.25;101725.81;4940830;28;45476;-66
2022/03/06 05:43:44;;;;;;;;;75.25;59.75;;;;;7.89;54.40;101724.94;4936741;28;45317;-65
2022/03/06 05:46:09;;;;;;;;;75.25;59.25;;;;;7.86;54.45;101711.66;4940428;28;45403;-65
2022/03/06 05:48:35;;;;;;;;;72.50;56.25;;;;;8.01;54.71;101724.00;4941117;28;45405;-65
2022/03/06 05:51:00;;;;;;;;;76.50;60.75;;;;;8.03;53.94;101728.38;4936196;28;45381;-65
2022/03/06 05:53:26;;;;;;;;;79.25;61.00;;;;;8.09;54.40;101733.69;4939314;28;45416;-65
2022/03/06 05:55:51;;;;;;;;;76.25;56.50;;;;;8.02;54.15;101731.06;4935365;28;45477;-65
2022/03/06 05:58:17;;;;;;;;;78.50;60.75;;;;;8.05;54.31;101742.59;4932200;28;45426;-65
2022/03/06 06:00:42;;;;;;;;;76.75;60.00;;;;;8.05;54.42;101742.59;4935586;28;45294;-65
2022/03/06 06:03:07;;;;;;;;;68.75;53.50;;;;;8.04;54.19;101735.50;4938440;28;45441;-65
2022/03/06 06:05:33;;;;;;;;;80.00;61.00;;;;;8.02;54.14;101742.59;4932319;28;45306;-65
2022/03/06 06:07:58;;;;;;;;;75.75;60.00;;;;;7.98;54.15;101746.16;4938559;28;45451;-65
2022/03/06 06:10:23;;;;;;;;;76.00;59.75;;;;;8.01;53.87;101739.94;4945915;28;45291;-65
2022/03/06 06:12:49;;;;;;;;;75.25;59.25;;;;;7.92;54.17;101746.22;4951197;28;45251;-66
2022/03/06 06:15:14;;;;;;;;;75.00;58.75;;;;;7.89;54.15;101749.75;4941081;28;45307;-65
2022/03/06 06:17:39;;;;;;;;;80.50;62.00;;;;;7.91;54.18;101741.75;4937691;28;45429;-66
2022/03/06 06:20:07;;;;;;;;;75.50;59.50;;;;;7.91;54.02;101753.28;4924413;28;45299;-65
2022/03/06 06:22:34;;;;;;;;;79.25;61.50;;;;;7.93;54.27;101753.28;4923950;28;45465;-65
2022/03/06 06:25:00;;;;;;;;;72.75;56.75;;;;;7.93;54.25;101756.81;4931337;28;46267;-65
2022/03/06 06:27:26;;;;;;;;;75.25;58.75;;;;;7.87;53.76;101747.97;4938555;28;46014;-65
2022/03/06 06:29:52;;;;;;;;;75.50;60.00;;;;;7.82;54.26;101766.63;4937002;28;45493;-65
2022/03/06 06:32:18;;;;;;;;;80.75;61.50;;;;;7.72;54.15;101762.25;4923864;28;45335;-65
2022/03/06 06:34:44;;;;;;;;;77.25;60.50;;;;;7.67;54.33;101770.22;4937725;28;46203;-65
2022/03/06 06:37:10;;;;;;;;;78.75;60.50;;;;;7.55;54.14;101762.28;4941475;28;45335;-65
2022/03/06 06:39:35;;;;;;;;;77.50;60.75;;;;;7.52;54.92;101764.97;4937996;28;45571;-65
2022/03/06 06:42:03;;;;;;;;;80.75;63.00;;;;;7.52;54.62;101764.97;4923571;28;46208;-65
2022/03/06 06:44:28;;;;;;;;;79.25;60.25;;;;;7.52;54.71;101775.59;4939210;28;46478;-65
2022/03/06 06:46:54;;;;;;;;;77.25;60.00;;;;;7.46;54.76;101776.50;4938446;28;45404;-65
2022/03/06 06:49:19;;;;;;;;;81.50;62.00;;;;;7.49;54.72;101794.22;4932155;28;45465;-65
2022/03/06 06:51:44;;;;;;;;;81.75;61.00;;;;;7.45;54.42;101776.50;4939825;28;45491;-65
2022/03/06 06:54:10;;;;;;;;;79.50;62.50;;;;;7.39;54.58;101780.94;4955115;28;47144;-65
2022/03/06 06:56:36;;;;;;;;;76.00;57.00;;;;;7.37;54.78;101789.81;4926303;28;45461;-67
2022/03/06 06:59:01;;;;;;;;;81.25;61.75;;;;;7.38;54.94;101797.78;4937914;28;45504;-65
2022/03/06 07:01:26;;;;;;;;;78.75;62.50;;;;;7.34;54.71;101793.34;4938085;28;45308;-65
2022/03/06 07:03:52;;;;;;;;;76.50;61.50;;;;;7.29;54.51;101794.25;4931132;28;46964;-65
2022/03/06 07:06:17;;;;;;;;;76.50;61.00;;;;;7.26;54.85;101800.44;4924412;28;45978;-65
2022/03/06 07:08:42;;;;;;;;;76.00;58.50;;;;;7.34;54.98;101809.28;4923520;28;45228;-65
2022/03/06 07:11:09;;;;;;;;;76.75;59.75;;;;;7.37;55.13;101800.44;4934916;28;45448;-66
2022/03/06 07:13:34;;;;;;;;;82.00;62.50;;;;;7.35;54.78;101800.44;4937917;28;46424;-65
2022/03/06 07:16:00;;;;;;;;;81.25;62.25;;;;;7.41;54.76;101799.53;4932370;28;45489;-65
2022/03/06 07:18:25;;;;;;;;;81.00;61.75;;;;;7.44;54.70;101806.63;4928528;28;45692;-66
2022/03/06 07:20:50;;;;;;;;;81.25;63.75;;;;;7.46;54.92;101808.38;4936895;28;45418;-66
2022/03/06 07:23:16;;;;;;;;;82.50;63.00;;;;;7.45;54.78;101806.63;4946026;28;46164;-76
2022/03/06 07:25:41;;;;;;;;;69.50;52.75;;;;;7.49;54.90;101807.50;4950143;28;45382;-73
2022/03/06 07:28:07;;;;;;;;;77.50;62.50;;;;;7.47;54.66;101812.81;4936321;28;45695;-74
2022/03/06 07:30:32;;;;;;;;;82.75;63.00;;;;;7.42;54.21;101817.25;4923340;28;46374;-75
2022/03/06 07:33:00;;;;;;;;;77.00;61.00;;;;;7.32;54.82;101819.03;4925376;28;46176;-75
2022/03/06 07:35:25;;;;;;;;;83.25;64.75;;;;;7.20;54.46;101821.69;4921746;28;45994;-75
2022/03/06 07:37:51;;;;;;;;;80.25;64.00;;;;;7.15;54.24;101821.72;4923415;28;45335;-73
2022/03/06 07:40:18;;;;;;;;;82.00;60.75;;;;;6.99;54.76;101828.78;4946378;28;45582;-75
2022/03/06 07:42:43;;;;;;;;;76.00;60.75;;;;;7.01;54.68;101831.44;4945816;28;46238;-75
2022/03/06 07:45:10;;;;;;;;;81.25;63.25;;;;;7.01;54.50;101827.00;4938141;28;45239;-75
2022/03/06 07:47:35;;;;;;;;;77.75;61.50;;;;;6.90;54.71;101825.25;4940305;28;45314;-74
2022/03/06 07:50:02;;;;;;;;;82.75;62.50;;;;;6.90;54.67;101838.53;4937806;28;45700;-65
2022/03/06 07:52:27;;;;;;;;;82.50;63.00;;;;;6.86;54.71;101841.16;4926657;28;46126;-65
2022/03/06 07:54:53;;;;;;;;;82.50;64.00;;;;;6.83;55.69;101830.56;4939765;28;45344;-65
2022/03/06 07:57:18;;;;;;;;;76.25;58.75;;;;;6.89;54.87;101832.34;4933015;28;45305;-65
2022/03/06 07:59:43;;;;;;;;;80.50;62.75;;;;;6.95;55.35;101844.72;4935416;28;45339;-65
2022/03/06 08:02:09;;;;;;;;;77.25;61.25;;;;;6.98;55.40;101842.06;4936202;28;45615;-65
2022/03/06 08:04:34;;;;;;;;;80.00;62.25;;;;;6.99;55.65;101844.72;4938552;28;45481;-65
2022/03/06 08:07:00;;;;;;;;;82.33;61.67;;;;;7.04;55.51;101839.41;4932890;28;45447;-65
2022/03/06 08:09:25;;;;;;;;;75.25;59.00;;;;;7.15;54.96;101853.59;4947144;28;45342;-65
2022/03/06 08:11:53;;;;;;;;;79.75;62.50;;;;;7.17;55.55;101851.81;4928448;28;45274;-65
2022/03/06 08:14:19;;;;;;;;;78.00;61.25;;;;;7.19;54.78;101860.66;4928349;28;45224;-65
2022/03/06 08:16:44;;;;;;;;;76.50;60.75;;;;;7.15;54.38;101865.94;4925398;28;45329;-65
2022/03/06 08:19:10;;;;;;;;;80.50;63.25;;;;;7.07;54.90;101867.72;4938142;28;45301;-65
2022/03/06 08:21:35;;;;;;;;;79.25;60.75;;;;;7.08;54.82;101858.88;4922135;28;45389;-65
2022/03/06 08:24:01;;;;;;;;;75.00;59.75;;;;;7.18;54.76;101879.22;4924722;28;45339;-65
2022/03/06 08:26:26;;;;;;;;;76.75;61.25;;;;;7.24;54.94;101876.59;4922638;28;45453;-66
2022/03/06 08:28:52;;;;;;;;;82.00;60.75;;;;;7.26;54.76;101874.81;4939712;28;45314;-65
2022/03/06 08:31:18;;;;;;;;;77.75;61.00;;;;;7.32;54.65;101876.59;4936961;28;45529;-65
2022/03/06 08:33:43;;;;;;;;;76.75;59.25;;;;;7.37;54.80;101877.47;4942804;28;45338;-65
2022/03/06 08:36:09;;;;;;;;;75.50;60.75;;;;;7.42;55.02;101881.00;4929769;28;45417;-65
2022/03/06 08:38:34;;;;;;;;;77.00;59.50;;;;;7.45;54.53;101883.66;4933852;28;45479;-65
2022/03/06 08:41:00;;;;;;;;;73.50;58.75;;;;;7.44;54.71;101878.34;4935625;28;45318;-65
2022/03/06 08:43:25;;;;;;;;;76.50;60.25;;;;;7.51;54.37;101893.38;4938500;28;45353;-64
2022/03/06 08:45:50;;;;;;;;;78.25;60.75;;;;;7.48;54.15;101874.78;4943443;28;45425;-64
2022/03/06 08:48:16;;;;;;;;;75.50;57.75;;;;;7.44;53.94;101878.34;4936523;28;45383;-65
2022/03/06 08:50:41;;;;;;;;;69.75;54.75;;;;;7.32;53.76;101869.50;4943534;28;46377;-64
2022/03/06 08:53:06;;;;;;;;;70.00;55.00;;;;;7.31;53.70;101878.34;4943706;28;45369;-65
2022/03/06 08:55:32;;;;;;;;;75.50;59.25;;;;;7.31;53.63;101878.34;4934066;28;45299;-64
2022/03/06 08:57:57;;;;;;;;;76.50;60.00;;;;;7.36;53.34;101881.88;4942729;28;45476;-64
2022/03/06 09:00:23;;;;;;;;;70.25;55.50;;;;;7.33;52.81;101884.53;4939524;28;45354;-65
2022/03/06 09:02:48;;;;;;;;;68.25;55.75;;;;;7.29;52.69;101885.44;4943954;28;45606;-65
2022/03/06 09:05:14;;;;;;;;;71.00;57.00;;;;;7.24;53.07;101881.91;4936975;28;45218;-65
2022/03/06 09:07:39;;;;;;;;;64.75;53.75;;;;;7.27;52.93;101886.31;4936978;28;45269;-64
2022/03/06 09:10:05;;;;;;;;;70.25;56.25;;;;;7.35;53.34;101890.75;4924557;28;46186;-65
2022/03/06 09:12:31;;;;;;;;;73.25;56.50;;;;;7.40;53.40;101891.63;4936616;28;45257;-65
2022/03/06 09:14:56;;;;;;;;;73.25;57.00;;;;;7.52;52.98;101896.03;4930499;28;45594;-65
2022/03/06 09:17:21;;;;;;;;;68.50;50.75;;;;;7.55;51.54;101892.47;4940699;28;45459;-65
2022/03/06 09:19:47;;;;;;;;;60.50;49.00;;;;;7.50;51.47;101886.28;4939451;28;45342;-65
2022/03/06 09:22:12;;;;;;;;;62.00;49.75;;;;;7.49;51.31;101889.84;4937895;28;45414;-65
2022/03/06 09:24:37;;;;;;;;;61.50;50.25;;;;;7.53;51.73;101892.47;4936689;28;45398;-65
2022/03/06 09:27:04;;;;;;;;;59.75;47.75;;;;;7.51;51.35;101888.06;4943069;28;45262;-65
2022/03/06 09:29:29;;;;;;;;;60.50;48.50;;;;;7.56;51.29;101896.91;4930773;28;46323;-65
2022/03/06 09:31:54;;;;;;;;;42.75;32.75;;;;;7.61;51.31;101895.13;4934612;28;45521;-65
2022/03/06 09:34:20;;;;;;;;;60.25;48.75;;;;;7.65;51.11;101904.00;4938725;28;45385;-65
2022/03/06 09:36:46;;;;;;;;;65.25;50.25;;;;;7.67;51.06;101897.78;4939221;28;45326;-65
2022/03/06 09:39:13;;;;;;;;;62.50;50.50;;;;;7.65;50.12;101896.00;4930918;28;45264;-65
2022/03/06 09:41:39;;;;;;;;;60.75;48.00;;;;;7.59;50.31;101895.13;4951771;28;45506;-65
2022/03/06 09:44:08;;;;;;;;;65.50;50.25;;;;;7.63;50.54;101911.09;4933415;28;45430;-65
2022/03/06 09:46:35;;;;;;;;;48.50;42.25;;;;;7.58;49.85;101912.00;4941804;28;45453;-65
2022/03/06 09:49:01;;;;;;;;;63.50;49.50;;;;;7.56;49.64;101910.22;4933976;28;46167;-65
2022/03/06 09:51:27;;;;;;;;;57.25;45.25;;;;;7.58;50.23;101912.00;4954516;28;45460;-65
2022/03/06 09:53:52;;;;;;;;;66.75;52.50;;;;;7.56;50.15;101911.09;4939880;28;45226;-65
2022/03/06 09:56:17;;;;;;;;;64.75;51.75;;;;;7.60;49.35;101914.63;4937117;28;45447;-66
2022/03/06 09:58:43;;;;;;;;;60.50;48.25;;;;;7.60;49.07;101917.28;4923999;28;45327;-66
2022/03/06 10:01:10;;;;;;;;;65.75;50.75;;;;;7.59;49.76;101919.06;4939721;28;45530;-65
2022/03/06 10:03:35;;;;;;;;;56.00;45.00;;;;;7.57;49.15;101909.34;4931509;28;45729;-66
2022/03/06 10:06:04;;;;;;;;;60.50;49.00;;;;;7.63;49.50;101925.25;4927693;28;45266;-66
2022/03/06 10:08:29;;;;;;;;;56.75;45.75;;;;;7.68;49.47;101915.50;4938479;28;46239;-65
2022/03/06 10:11:03;;;;;;;;;56.50;46.25;;;;;7.77;49.15;101918.16;4932796;28;45322;-65
2022/03/06 10:13:37;;;;;;;;;55.75;45.50;;;;;7.78;49.12;101908.41;4938850;28;45281;-64
2022/03/06 10:16:10;;;;;;;;;47.75;40.00;;;;;7.81;48.03;101911.06;4940616;28;45456;-63
2022/03/06 10:18:38;;;;;;;;;53.75;40.75;;;;;7.86;47.65;101919.03;4933328;28;46269;-63
2022/03/06 10:21:20;;;;;;;;;39.75;36.50;;;;;7.90;48.07;101923.44;4930510;28;46096;-63
2022/03/06 10:23:48;;;;;;;;;45.50;38.25;;;;;7.91;47.69;101914.56;4926145;28;45318;-63
2022/03/06 10:26:22;;;;;;;;;45.50;38.75;;;;;7.96;47.74;101904.81;4922732;28;45506;-64
2022/03/06 10:28:59;;;;;;;;;51.25;39.50;;;;;8.04;47.39;101907.47;4936208;28;45604;-64
2022/03/06 10:31:28;;;;;;;;;40.50;35.00;;;;;8.10;47.01;101916.31;4926526;28;45461;-65
2022/03/06 10:33:59;;;;;;;;;45.75;38.25;;;;;8.16;46.54;101913.59;4930472;28;45385;-64
2022/03/06 10:36:39;;;;;;;;;47.50;41.75;;;;;8.25;46.45;101914.47;4924821;28;45853;-65
2022/03/06 10:39:17;;;;;;;;;34.50;33.50;;;;;8.19;45.96;101893.22;4925110;28;46351;-65
2022/03/06 10:41:47;;;;;;;;;39.50;34.75;;;;;8.26;45.67;101916.25;4934554;28;45899;-64
2022/03/06 10:44:14;;;;;;;;;45.75;35.25;;;;;8.24;45.44;101905.59;4931187;28;45460;-65
2022/03/06 10:46:40;;;;;;;;;36.75;33.00;;;;;8.27;44.94;101918.00;4941875;28;45322;-65
2022/03/06 10:49:14;;;;;;;;;36.00;30.50;;;;;8.26;44.69;101911.78;4941953;28;45358;-69
2022/03/06 10:51:42;;;;;;;;;37.25;32.50;;;;;8.32;44.21;101909.13;4956593;28;45361;-65
2022/03/06 10:54:08;;;;;;;;;37.25;30.00;;;;;8.37;44.38;101917.09;4936476;28;45403;-65
2022/03/06 10:56:34;;;;;;;;;24.50;20.00;;;;;8.41;43.74;101910.84;4927008;28;45505;-65
2022/03/06 10:59:03;;;;;;;;;24.00;24.00;;;;;8.38;43.15;101913.50;4936633;28;46263;-65
2022/03/06 11:01:28;;;;;;;;;32.25;27.50;;;;;8.43;43.17;101921.50;4930604;28;45809;-64
2022/03/06 11:03:58;;;;;;;;;31.00;30.75;;;;;8.44;43.23;101913.53;4923432;28;45462;-65
2022/03/06 11:06:25;;;;;;;;;27.00;26.75;;;;;8.42;42.82;101903.75;4935163;28;45316;-65
2022/03/06 11:08:52;;;;;;;;;37.25;31.50;;;;;8.48;42.95;101909.94;4923295;28;45391;-65